Terminal Aerodrome Forecast
Issued by NWS

Home | Current Version | Previous Version | Text Only | Print | Product List | Glossary On
Versions: 1 2 3 4 5 6 7 8 9 10 11 12 13 14 15 16 17 18 19 20 21 22 23 24
000
FTUS43 KDVN 241728
TAFBRL
TAF
KBRL 241728Z 2418/2518 18012G18KT P6SM BKN090
     FM242000 18011G16KT P6SM VCTS BKN060CB
     FM250000 16006KT P6SM BKN050
     FM250600 16006KT 5SM BR BKN035
     FM251600 17012G18KT P6SM VCTS BKN040CB=

USA.gov is the U.S. government's official web portal to all federal, state and local government web resources and services.